Terminal Aerodrome Forecast
Issued by NWS

Home | Current Version | Previous Version | Text Only | Print | Product List | Glossary On
Versions: 1 2 3 4 5 6 7 8 9 10 11 12 13 14 15 16 17
499
FTUS42 TJSJ 192320
TAFJBQ
TAF
TJBQ 192320Z 2000/2024 08010KT P6SM SCT030 SCT070
     FM200500 09005KT P6SM FEW030
     FM201300 09009KT P6SM SCT030
      AMD NOT SKED 2002/2011=

USA.gov is the U.S. government's official web portal to all federal, state and local government web resources and services.